Time;durP1;ratioP1;P1;durP2;ratioP2;P2;SDS_P1;SDS_P2;PMS_P1;PMS_P2;Temp;Humidity;BMP_temperature;BMP_pressure;BME280_temperature;BME280_humidity;BME280_pressure;Samples;Min_cycle;Max_cycle;Signal;HPM_P1;HPM_P2
2023/06/14 00:00:49;;;;;;;7.70;6.60;;;;;;;15.07;100.00;100920.00;5040848;57;1140903;-66
2023/06/14 00:05:56;;;;;;;9.10;6.70;;;;;;;15.07;100.00;100909.34;5051952;57;1140876;-66
2023/06/14 00:11:01;;;;;;;8.87;6.63;;;;;;;15.06;100.00;100908.98;5023298;57;1141056;-66
2023/06/14 00:16:07;;;;;;;7.28;6.58;;;;;;;15.04;100.00;100906.11;5023216;57;1140941;-66
2023/06/14 00:21:14;;;;;;;11.63;6.12;;;;;;;15.00;100.00;100912.68;5043018;57;1140887;-66
2023/06/14 00:26:19;;;;;;;6.92;5.78;;;;;;;15.03;100.00;100909.26;5022743;57;1142780;-67
2023/06/14 00:31:25;;;;;;;8.80;5.50;;;;;;;15.03;100.00;100908.41;5005086;57;1140973;-65
2023/06/14 00:36:32;;;;;;;9.27;6.03;;;;;;;15.05;100.00;100912.63;4979385;58;1141010;-66
2023/06/14 00:41:38;;;;;;;6.87;5.30;;;;;;;15.03;100.00;100913.74;4959784;58;1141157;-66
2023/06/14 00:46:45;;;;;;;6.30;4.77;;;;;;;15.04;100.00;100919.42;4959960;57;1140493;-66
2023/06/14 00:51:51;;;;;;;7.90;4.80;;;;;;;15.01;100.00;100915.20;4979301;58;1140917;-66
2023/06/14 00:56:57;;;;;;;11.67;4.37;;;;;;;14.99;100.00;100918.98;4959832;58;1140490;-66
2023/06/14 01:02:03;;;;;;;6.13;4.30;;;;;;;14.97;100.00;100914.31;4998250;57;1142816;-68
2023/06/14 01:07:31;;;;;;;4.03;3.52;;;;;;;14.98;100.00;100910.64;5060841;57;1140778;-66
2023/06/14 01:12:41;;;;;;;9.97;3.37;;;;;;;15.03;100.00;100907.92;5040444;57;1140869;-66
2023/06/14 01:17:51;;;;;;;3.77;3.57;;;;;;;15.01;100.00;100895.23;5040929;57;1140701;-66
2023/06/14 01:22:56;;;;;;;5.60;4.10;;;;;;;15.04;100.00;100894.96;5014160;57;1140731;-65
2023/06/14 01:28:12;;;;;;;4.65;3.50;;;;;;;15.04;100.00;100896.78;4977765;57;1140871;-67
2023/06/14 01:33:22;;;;;;;7.37;3.42;;;;;;;15.00;100.00;100896.20;4947604;58;1140957;-66
2023/06/14 01:38:30;;;;;;;5.60;3.57;;;;;;;14.95;100.00;100893.63;4978500;58;1140696;-66
2023/06/14 01:43:37;;;;;;;4.13;3.73;;;;;;;14.97;100.00;100885.83;4958584;57;1140676;-66
2023/06/14 01:48:44;;;;;;;4.10;3.70;;;;;;;14.98;100.00;100880.01;5041449;57;1140703;-66
2023/06/14 01:53:49;;;;;;;5.30;4.00;;;;;;;15.02;100.00;100872.09;5061012;57;1140701;-66
2023/06/14 01:58:55;;;;;;;5.40;3.97;;;;;;;15.03;100.00;100871.13;5041206;57;1140766;-66
2023/06/14 02:04:01;;;;;;;7.77;4.03;;;;;;;15.06;100.00;100858.38;5040311;57;1140941;-66
2023/06/14 02:09:06;;;;;;;13.03;5.03;;;;;;;15.04;100.00;100856.34;5061102;57;1140724;-66
2023/06/14 02:14:12;;;;;;;3.95;3.65;;;;;;;14.92;100.00;100853.45;5041072;57;1142734;-66
2023/06/14 02:19:19;;;;;;;6.03;4.22;;;;;;;14.87;100.00;100852.18;5041175;57;1140810;-66
2023/06/14 02:24:25;;;;;;;4.53;4.13;;;;;;;14.95;100.00;100854.52;5030498;57;1140767;-66
2023/06/14 02:29:31;;;;;;;4.30;3.90;;;;;;;15.00;100.00;100858.91;4960204;58;1140667;-66
2023/06/14 02:34:36;;;;;;;5.30;4.83;;;;;;;15.02;100.00;100860.95;4959950;58;1140880;-65
2023/06/14 02:39:42;;;;;;;5.40;4.20;;;;;;;15.00;100.00;100863.41;4997310;57;1140861;-66
2023/06/14 02:44:51;;;;;;;5.40;4.30;;;;;;;15.03;100.00;100857.80;5061637;57;1140782;-66
2023/06/14 02:49:55;;;;;;;7.30;4.53;;;;;;;15.02;100.00;100852.97;5041736;57;1140743;-66
2023/06/14 02:55:01;;;;;;;6.60;3.90;;;;;;;15.06;100.00;100859.70;5041732;57;1140746;-67
2023/06/14 03:00:10;;;;;;;11.67;5.07;;;;;;;15.10;100.00;100865.11;5060733;57;1140796;-66
2023/06/14 03:05:15;;;;;;;5.73;4.70;;;;;;;15.14;100.00;100867.83;5012224;57;1143016;-66
2023/06/14 03:10:22;;;;;;;7.93;4.43;;;;;;;15.13;100.00;100863.97;4960193;58;1140979;-66
2023/06/14 03:15:29;;;;;;;5.47;4.93;;;;;;;15.06;100.00;100860.19;4979377;58;1140865;-66
2023/06/14 03:20:34;;;;;;;7.77;4.20;;;;;;;14.97;100.00;100861.04;4959747;58;1140780;-66
2023/06/14 03:25:42;;;;;;;5.23;4.77;;;;;;;15.00;100.00;100855.41;4959403;58;1140782;-66
2023/06/14 03:30:48;;;;;;;10.68;4.83;;;;;;;15.08;100.00;100859.56;4959519;58;1140992;-66
2023/06/14 03:35:56;;;;;;;8.63;4.73;;;;;;;15.14;100.00;100873.16;5016089;57;1143007;-66
2023/06/14 03:41:01;;;;;;;9.87;4.70;;;;;;;15.14;100.00;100874.98;5044585;57;1140957;-66
2023/06/14 03:46:07;;;;;;;6.37;4.33;;;;;;;15.10;100.00;100870.93;5052390;57;1140991;-66
2023/06/14 03:51:13;;;;;;;8.98;4.30;;;;;;;15.14;100.00;100870.98;5072359;57;1140803;-65
2023/06/14 03:56:20;;;;;;;8.83;5.70;;;;;;;15.12;100.00;100871.11;5052105;57;1140984;-66
2023/06/14 04:01:29;;;;;;;6.33;4.40;;;;;;;15.16;100.00;100869.51;5051220;57;1140832;-66
2023/06/14 04:06:33;;;;;;;10.43;5.63;;;;;;;15.09;100.00;100874.09;5072277;57;1140755;-66
2023/06/14 04:11:39;;;;;;;7.30;5.30;;;;;;;15.12;100.00;100880.44;5051525;57;1142763;-67
2023/06/14 04:16:44;;;;;;;10.77;4.50;;;;;;;15.13;100.00;100882.13;5052171;57;1140760;-66
2023/06/14 04:21:50;;;;;;;11.83;5.10;;;;;;;15.17;100.00;100885.84;5071715;57;1142918;-66
2023/06/14 04:26:58;;;;;;;6.93;5.90;;;;;;;15.22;100.00;100890.28;4998419;57;1143055;-65
2023/06/14 04:32:05;;;;;;;6.50;5.30;;;;;;;15.21;100.00;100887.27;4970209;58;1141060;-66
2023/06/14 04:37:11;;;;;;;13.02;5.62;;;;;;;15.16;100.00;100890.34;4990081;57;1140885;-65
2023/06/14 04:42:20;;;;;;;9.38;5.10;;;;;;;15.12;100.00;100899.61;4968358;57;1142800;-65
2023/06/14 04:47:29;;;;;;;9.57;4.93;;;;;;;15.13;100.00;100905.27;5031525;57;1140717;-65
2023/06/14 04:52:35;;;;;;;11.40;4.97;;;;;;;15.10;100.00;100905.56;5043697;57;1140905;-66
2023/06/14 04:57:42;;;;;;;5.00;4.50;;;;;;;15.16;100.00;100895.66;5000357;57;1142825;-66
2023/06/14 05:02:49;;;;;;;6.67;5.83;;;;;;;15.18;100.00;100888.37;5010321;57;1140670;-66
2023/06/14 05:07:54;;;;;;;13.93;5.17;;;;;;;15.23;100.00;100894.14;4982052;57;1140913;-66
2023/06/14 05:13:00;;;;;;;17.20;5.67;;;;;;;15.27;100.00;100898.70;4959535;57;1142910;-65
2023/06/14 05:18:09;;;;;;;11.37;6.10;;;;;;;15.35;100.00;100906.34;4978852;57;1142703;-66
2023/06/14 05:23:14;;;;;;;5.80;4.92;;;;;;;15.41;100.00;100904.45;5051279;57;1143028;-65
2023/06/14 05:28:20;;;;;;;9.58;5.80;;;;;;;15.46;100.00;100910.67;5005083;57;1140885;-66
2023/06/14 05:33:26;;;;;;;6.47;4.92;;;;;;;15.41;100.00;100907.61;4959612;58;1140625;-66
2023/06/14 05:38:31;;;;;;;11.17;5.73;;;;;;;15.40;100.00;100909.44;4978455;58;1140797;-66
2023/06/14 05:43:37;;;;;;;5.83;4.03;;;;;;;15.48;100.00;100913.56;4958687;58;1142806;-66
2023/06/14 05:48:42;;;;;;;7.77;5.57;;;;;;;15.57;100.00;100917.74;4959449;58;1141141;-66
2023/06/14 05:53:51;;;;;;;10.47;5.37;;;;;;;15.61;100.00;100912.45;4978829;58;1141004;-65
2023/06/14 05:58:56;;;;;;;9.33;5.53;;;;;;;15.66;100.00;100911.05;4959273;58;1143120;-66
2023/06/14 06:04:02;;;;;;;10.37;5.43;;;;;;;15.74;100.00;100914.33;4960747;57;1140993;-67
2023/06/14 06:09:08;;;;;;;6.33;5.13;;;;;;;15.77;100.00;100915.38;4998942;58;1142743;-66
2023/06/14 06:14:13;;;;;;;8.03;5.27;;;;;;;15.81;100.00;100919.45;4960157;58;1140772;-67
2023/06/14 06:19:19;;;;;;;10.17;5.30;;;;;;;15.81;100.00;100921.63;4960492;57;1140764;-66
2023/06/14 06:24:25;;;;;;;9.50;5.63;;;;;;;15.83;100.00;100924.16;5012380;57;1142815;-67
2023/06/14 06:29:30;;;;;;;6.47;5.80;;;;;;;15.90;100.00;100922.59;5041976;57;1148462;-65
2023/06/14 06:34:37;;;;;;;7.78;5.90;;;;;;;15.90;100.00;100926.59;5041848;57;1141125;-66
2023/06/14 06:39:43;;;;;;;8.58;5.62;;;;;;;15.92;100.00;100923.28;5041743;57;1140976;-66
2023/06/14 06:44:49;;;;;;;6.87;5.22;;;;;;;15.99;100.00;100943.09;5061661;57;1140918;-65
2023/06/14 06:49:54;;;;;;;7.08;5.60;;;;;;;16.14;100.00;100942.14;5041897;57;1254511;-66
2023/06/14 06:55:00;;;;;;;8.33;5.50;;;;;;;16.32;100.00;100943.08;5001707;57;1140585;-66
2023/06/14 07:00:12;;;;;;;5.90;4.70;;;;;;;16.45;100.00;100939.58;4984701;57;1141295;-66
2023/06/14 07:05:15;;;;;;;8.60;5.97;;;;;;;16.65;100.00;100946.21;4807036;60;1141221;-66
2023/06/14 07:10:20;;;;;;;8.73;5.03;;;;;;;16.84;100.00;100948.77;5001780;57;1141229;-67
2023/06/14 07:15:26;;;;;;;13.00;5.30;;;;;;;16.93;100.00;100949.22;5032443;57;1140866;-66
2023/06/14 07:20:32;;;;;;;7.17;5.07;;;;;;;16.99;100.00;100947.27;5019384;57;1143256;-66
2023/06/14 07:25:38;;;;;;;9.10;5.60;;;;;;;17.07;100.00;100957.22;5042518;57;1140960;-66
2023/06/14 07:30:44;;;;;;;17.25;5.17;;;;;;;17.33;100.00;100951.97;5039549;57;1141302;-67
2023/06/14 07:35:50;;;;;;;4.80;4.33;;;;;;;17.50;100.00;100953.32;4975050;57;1143213;-67
2023/06/14 07:40:55;;;;;;;8.67;5.47;;;;;;;17.72;100.00;100952.02;4966625;58;1141138;-66
2023/06/14 07:46:02;;;;;;;4.73;4.27;;;;;;;17.78;97.32;100960.78;4961775;58;1140802;-66
2023/06/14 07:51:07;;;;;;;6.03;4.40;;;;;;;17.69;97.50;100951.02;4984634;58;1138875;-63
2023/06/14 07:56:13;;;;;;;3.77;3.10;;;;;;;17.55;93.18;100956.38;4998855;57;1138880;-66
2023/06/14 08:01:19;;;;;;;7.20;3.77;;;;;;;17.44;93.61;100955.75;4985333;57;1138698;-66
2023/06/14 08:06:26;;;;;;;4.40;3.70;;;;;;;17.30;94.04;100961.63;5061287;57;1138938;-66
2023/06/14 08:11:31;;;;;;;5.60;3.90;;;;;;;17.38;94.19;100957.22;5065288;57;1138981;-66
2023/06/14 08:16:38;;;;;;;4.40;3.65;;;;;;;17.46;91.47;100963.13;5028731;57;1250676;-68
2023/06/14 08:21:44;;;;;;;14.93;3.90;;;;;;;17.52;92.48;100955.84;4949659;58;1139046;-66
2023/06/14 08:26:49;;;;;;;11.06;3.68;;;;;;;17.56;91.80;100956.73;4981907;58;1140894;-66
2023/06/14 08:31:55;;;;;;;7.90;3.67;;;;;;;17.66;91.60;100946.47;4960393;58;1140871;-66
2023/06/14 08:37:01;;;;;;;7.08;3.85;;;;;;;17.82;92.39;100947.94;4963998;58;1138747;-66
2023/06/14 08:42:09;;;;;;;3.87;3.33;;;;;;;18.14;91.30;100946.00;4980810;58;1139026;-67
2023/06/14 08:47:17;;;;;;;7.58;3.60;;;;;;;18.34;89.96;100944.77;4965160;58;1139068;-65
2023/06/14 08:52:23;;;;;;;4.73;2.97;;;;;;;18.37;86.95;100952.48;4963431;58;1139178;-67
2023/06/14 08:57:30;;;;;;;5.27;3.50;;;;;;;18.46;88.10;100944.86;5008229;57;1139152;-66
2023/06/14 09:02:35;;;;;;;6.53;4.30;;;;;;;18.73;88.46;100937.63;4840103;59;1138776;-66
2023/06/14 09:07:43;;;;;;;8.63;3.67;;;;;;;18.88;87.47;100942.21;4877038;59;1138752;-66
2023/06/14 09:12:48;;;;;;;11.37;4.37;;;;;;;19.08;86.71;100935.23;4958318;58;1138659;-65
2023/06/14 09:17:55;;;;;;;4.62;3.72;;;;;;;19.19;84.77;100942.47;5070146;57;1141081;-66
2023/06/14 09:23:02;;;;;;;4.47;3.98;;;;;;;19.12;82.61;100941.92;5046944;57;1138844;-67
2023/06/14 09:28:09;;;;;;;11.95;4.47;;;;;;;19.14;82.83;100944.79;5048779;57;1138843;-66
2023/06/14 09:33:20;;;;;;;6.22;3.72;;;;;;;19.27;83.47;100945.65;5064320;57;1140897;-67
2023/06/14 09:38:27;;;;;;;5.20;3.22;;;;;;;19.32;81.80;100935.28;5046777;57;1138788;-66
2023/06/14 09:43:35;;;;;;;6.12;3.42;;;;;;;19.43;81.51;100932.77;5070669;57;1138711;-65
2023/06/14 09:48:46;;;;;;;5.28;3.62;;;;;;;19.59;81.64;100931.47;5047967;57;1251608;-67
2023/06/14 09:53:50;;;;;;;4.35;3.15;;;;;;;19.62;80.49;100927.11;5041083;57;1138998;-67
2023/06/14 09:58:58;;;;;;;6.95;3.70;;;;;;;19.73;79.70;100925.42;5013309;57;1138888;-66
2023/06/14 10:04:08;;;;;;;4.75;3.47;;;;;;;19.68;76.07;100928.30;4975384;57;1138660;-68
2023/06/14 10:09:14;;;;;;;3.92;3.40;;;;;;;19.62;75.69;100918.56;4981811;57;1138928;-67
2023/06/14 10:14:20;;;;;;;12.98;4.12;;;;;;;19.62;75.01;100919.91;4961804;58;1138858;-67
2023/06/14 10:19:45;;;;;;;7.10;2.87;;;;;;;19.74;78.20;100921.73;4965684;58;1141002;-65
2023/06/14 10:24:51;;;;;;;9.30;3.97;;;;;;;20.04;75.15;100912.14;4961571;58;1138990;-67
2023/06/14 10:30:01;;;;;;;5.95;3.12;;;;;;;20.18;75.86;100914.63;4986428;58;1139220;-67
2023/06/14 10:35:08;;;;;;;4.90;3.10;;;;;;;20.51;76.55;100920.77;4962105;58;1258577;-67
2023/06/14 10:40:35;;;;;;;8.68;3.60;;;;;;;20.59;72.77;100910.84;4969415;58;1139105;-66
2023/06/14 10:45:45;;;;;;;6.60;4.00;;;;;;;20.62;73.13;100915.05;4962749;57;1139043;-67
2023/06/14 10:50:51;;;;;;;6.70;3.35;;;;;;;20.62;69.03;100906.44;4980609;58;1138912;-67
2023/06/14 10:55:58;;;;;;;3.80;3.20;;;;;;;20.56;70.82;100900.44;4987624;57;1138927;-65
2023/06/14 11:01:04;;;;;;;5.50;3.05;;;;;;;20.64;70.14;100902.23;4984555;57;1138920;-64
2023/06/14 11:06:15;;;;;;;65.08;5.42;;;;;;;20.71;71.31;100895.16;5023785;57;1138955;-63
2023/06/14 11:11:23;;;;;;;5.83;2.92;;;;;;;20.83;69.69;100889.72;4962549;57;1141056;-63
2023/06/14 11:16:31;;;;;;;7.62;3.87;;;;;;;20.94;66.05;100894.69;5045024;57;1138670;-65
2023/06/14 11:21:42;;;;;;;7.63;3.27;;;;;;;21.01;64.96;100890.80;5067154;57;1138849;-63
2023/06/14 11:26:49;;;;;;;45.98;3.65;;;;;;;21.06;66.33;100898.67;5041865;57;1138772;-65
2023/06/14 11:31:55;;;;;;;6.12;2.92;;;;;;;21.08;62.77;100907.38;5044608;57;1141084;-62
2023/06/14 11:37:01;;;;;;;5.03;2.70;;;;;;;21.06;60.80;100898.67;5042338;57;1138823;-63
2023/06/14 11:42:07;;;;;;;7.97;3.43;;;;;;;21.08;62.80;100897.95;5048386;57;1138979;-63
2023/06/14 11:47:13;;;;;;;9.30;3.33;;;;;;;21.24;63.75;100885.45;5001627;57;1141322;-65
2023/06/14 11:52:19;;;;;;;7.70;3.07;;;;;;;21.28;59.89;100886.77;5050747;57;1138689;-63
2023/06/14 11:57:25;;;;;;;5.28;3.02;;;;;;;21.26;61.90;100883.42;5047154;57;1138737;-65
2023/06/14 12:02:33;;;;;;;10.63;3.42;;;;;;;21.32;63.60;100867.91;5018323;57;1138678;-63
2023/06/14 12:07:42;;;;;;;11.35;3.20;;;;;;;21.43;63.87;100861.26;5038389;57;1140819;-64
2023/06/14 12:12:47;;;;;;;13.30;3.40;;;;;;;21.56;62.90;100856.09;5039575;57;1140942;-63
2023/06/14 12:17:55;;;;;;;10.65;3.17;;;;;;;21.63;61.78;100848.47;4969860;58;1140627;-65
2023/06/14 12:23:03;;;;;;;7.72;2.80;;;;;;;21.73;59.46;100844.16;4969642;58;1140805;-65
2023/06/14 12:28:10;;;;;;;5.83;2.52;;;;;;;22.11;60.49;100840.93;4989648;58;1138739;-65
2023/06/14 12:33:16;;;;;;;7.90;2.95;;;;;;;22.45;55.23;100832.27;4970116;58;1138589;-66
2023/06/14 12:38:21;;;;;;;5.35;3.10;;;;;;;22.69;55.54;100831.91;5003574;57;1138565;-62
2023/06/14 12:43:27;;;;;;;5.40;2.97;;;;;;;22.88;54.00;100829.66;5063413;57;1138700;-63
2023/06/14 12:48:34;;;;;;;6.78;2.80;;;;;;;22.76;49.49;100827.96;4989012;57;1138526;-62
2023/06/14 12:53:40;;;;;;;7.55;3.47;;;;;;;22.64;53.79;100828.95;4969174;57;1138623;-63
2023/06/14 12:58:45;;;;;;;12.70;3.77;;;;;;;22.72;56.11;100828.01;4969324;57;1138927;-64
2023/06/14 13:03:53;;;;;;;6.28;2.72;;;;;;;22.72;55.07;100831.54;5056046;57;1140859;-63
2023/06/14 13:08:59;;;;;;;32.30;25.60;;;;;;;22.62;54.33;100825.59;5040639;57;1138672;-62
2023/06/14 13:14:05;;;;;;;26.70;19.98;;;;;;;22.56;53.22;100820.98;5010150;57;1142863;-64
2023/06/14 13:19:10;;;;;;;13.78;5.72;;;;;;;22.48;51.71;100821.08;5040527;57;1142874;-64
2023/06/14 13:24:16;;;;;;;7.62;4.03;;;;;;;22.46;53.40;100809.13;5007678;57;1140980;-65
2023/06/14 13:29:22;;;;;;;8.73;3.10;;;;;;;22.53;55.27;100811.92;4989717;57;1138912;-62
2023/06/14 13:34:27;;;;;;;14.00;2.90;;;;;;;22.59;51.99;100803.59;5053660;57;1138684;-65
2023/06/14 13:39:33;;;;;;;6.90;2.90;;;;;;;22.54;50.83;100797.42;4986349;57;1140895;-65
2023/06/14 13:44:39;;;;;;;9.70;3.12;;;;;;;22.61;53.32;100793.46;4948894;58;1138529;-63
2023/06/14 13:49:45;;;;;;;5.50;3.30;;;;;;;22.70;51.43;100790.45;4967857;58;1138917;-63
2023/06/14 13:54:51;;;;;;;7.05;3.27;;;;;;;22.70;48.77;100784.22;4962397;57;1138503;-64
2023/06/14 14:00:00;;;;;;;11.35;3.72;;;;;;;22.67;50.27;100795.38;4892701;58;1138673;-62
2023/06/14 14:05:05;;;;;;;9.00;4.25;;;;;;;22.69;50.32;100799.56;4985721;57;1140706;-64
2023/06/14 14:10:13;;;;;;;13.08;4.25;;;;;;;22.53;48.97;100800.30;5073833;57;1138954;-62
2023/06/14 14:15:18;;;;;;;18.35;4.42;;;;;;;22.41;49.11;100801.31;4949380;57;1140744;-66
2023/06/14 14:20:24;;;;;;;3.73;3.43;;;;;;;22.36;50.38;100814.00;4905182;58;1140833;-63
2023/06/14 14:25:30;;;;;;;4.00;2.80;;;;;;;22.26;49.69;100814.81;4870435;59;1138833;-63
2023/06/14 14:30:39;;;;;;;6.28;3.47;;;;;;;22.15;50.12;100813.95;4873764;58;1138688;-65
2023/06/14 14:35:48;;;;;;;7.37;4.22;;;;;;;22.08;51.66;100816.54;4791089;59;1138698;-63
2023/06/14 14:40:54;;;;;;;10.13;3.80;;;;;;;21.99;52.78;100814.11;4857121;58;1138735;-63
2023/06/14 14:46:00;;;;;;;19.62;3.70;;;;;;;21.88;52.94;100814.03;4908101;58;1140971;-63
2023/06/14 14:51:06;;;;;;;4.67;3.83;;;;;;;21.79;54.11;100816.51;5010856;57;1140590;-63
2023/06/14 14:56:11;;;;;;;17.87;4.00;;;;;;;21.72;54.21;100824.98;5015403;57;1138544;-63
2023/06/14 15:01:18;;;;;;;8.80;4.12;;;;;;;21.65;54.86;100818.67;4945976;57;1149737;-64
2023/06/14 15:06:23;;;;;;;9.60;3.90;;;;;;;21.59;55.43;100830.16;4943980;57;1138693;-63
2023/06/14 15:11:29;;;;;;;5.53;3.80;;;;;;;21.53;56.21;100825.53;4977305;57;1138765;-64
2023/06/14 15:16:34;;;;;;;11.30;3.33;;;;;;;21.47;55.41;100825.73;4996488;57;1138788;-62
2023/06/14 15:21:40;;;;;;;7.95;3.22;;;;;;;21.34;53.29;100824.18;4971727;57;1140818;-63
2023/06/14 15:26:46;;;;;;;8.83;3.30;;;;;;;21.23;53.44;100828.66;4868783;58;1138619;-65
2023/06/14 15:31:54;;;;;;;12.15;3.45;;;;;;;21.17;53.53;100836.05;4987909;57;1138851;-66
2023/06/14 15:36:59;;;;;;;7.97;3.00;;;;;;;21.08;53.47;100842.52;4854296;59;1140697;-63
2023/06/14 15:42:06;;;;;;;17.10;3.42;;;;;;;21.02;53.90;100848.94;4896348;58;1138517;-64
2023/06/14 15:47:11;;;;;;;13.45;4.40;;;;;;;21.00;54.46;100846.09;4984660;57;1140871;-65
2023/06/14 15:52:18;;;;;;;11.05;4.85;;;;;;;20.96;55.33;100850.98;4984433;57;1140757;-65
2023/06/14 15:57:23;;;;;;;9.60;4.92;;;;;;;20.82;56.86;100846.87;4972893;57;1141010;-64
2023/06/14 16:02:29;;;;;;;12.63;6.55;;;;;;;20.68;57.76;100849.81;4994590;57;1138775;-64
2023/06/14 16:07:34;;;;;;;11.80;5.60;;;;;;;20.63;58.97;100852.19;4964071;57;1140863;-62
2023/06/14 16:12:40;;;;;;;8.05;5.28;;;;;;;20.51;59.81;100862.50;4971280;57;1140668;-65
2023/06/14 16:17:46;;;;;;;11.68;4.20;;;;;;;20.36;61.02;100870.45;4805105;59;1138865;-62
2023/06/14 16:22:51;;;;;;;12.05;3.80;;;;;;;20.24;61.40;100870.97;4956865;57;1141312;-64
2023/06/14 16:27:57;;;;;;;6.40;4.00;;;;;;;20.13;61.99;100862.80;4937927;57;1140741;-64
2023/06/14 16:33:03;;;;;;;9.15;4.87;;;;;;;20.07;62.25;100856.75;4973575;57;1138742;-63
2023/06/14 16:38:09;;;;;;;14.07;4.33;;;;;;;20.01;62.55;100854.78;4957852;58;1138842;-63
2023/06/14 16:43:15;;;;;;;26.50;12.15;;;;;;;20.01;62.55;100854.78;4904964;58;1140930;-65
2023/06/14 16:48:20;;;;;;;28.17;13.05;;;;;;;19.98;62.99;100848.40;4782781;60;1142740;-65
2023/06/14 16:53:26;;;;;;;19.87;9.33;;;;;;;19.88;63.58;100851.77;4869671;59;1142999;-64
2023/06/14 16:58:32;;;;;;;20.48;13.13;;;;;;;19.86;65.07;100857.84;4718733;59;1141010;-65
2023/06/14 17:03:37;;;;;;;11.93;5.50;;;;;;;19.75;65.78;100863.03;4852458;59;1142719;-63
2023/06/14 17:08:44;;;;;;;18.24;9.62;;;;;;;19.62;66.17;100861.38;4812976;58;1140856;-66
2023/06/14 17:13:51;;;;;;;26.75;9.70;;;;;;;19.53;66.94;100866.42;4870174;59;1140801;-65
2023/06/14 17:18:56;;;;;;;60.15;34.75;;;;;;;19.40;67.09;100859.36;4864002;58;1140784;-64
2023/06/14 17:24:02;;;;;;;19.87;16.15;;;;;;;19.34;68.09;100860.86;4911681;58;1142896;-64
2023/06/14 17:29:08;;;;;;;60.52;7.90;;;;;;;19.29;68.29;100852.46;4892983;58;1142799;-65
2023/06/14 17:34:13;;;;;;;11.22;5.53;;;;;;;19.33;68.43;100849.79;4858138;58;1140738;-64
2023/06/14 17:39:20;;;;;;;12.64;7.38;;;;;;;19.34;68.50;100852.81;4887174;58;1140722;-66
2023/06/14 17:44:26;;;;;;;11.77;4.87;;;;;;;19.39;68.51;100845.61;4863317;57;1140745;-66
2023/06/14 17:49:32;;;;;;;18.30;5.62;;;;;;;19.39;68.51;100845.61;4858498;59;1140901;-63
2023/06/14 17:54:37;;;;;;;3.83;3.53;;;;;;;19.37;68.47;100844.94;4735602;60;1140874;-63
2023/06/14 17:59:43;;;;;;;9.95;4.55;;;;;;;19.38;68.73;100842.09;4934373;57;1138846;-63
2023/06/14 18:04:49;;;;;;;21.17;4.45;;;;;;;19.41;68.97;100852.45;4927773;58;1138900;-65
2023/06/14 18:09:55;;;;;;;14.53;6.40;;;;;;;19.42;68.94;100856.81;4963714;57;1140723;-63
2023/06/14 18:15:01;;;;;;;13.25;8.18;;;;;;;19.44;69.24;100864.70;4986565;57;1140777;-63
2023/06/14 18:20:08;;;;;;;11.30;7.28;;;;;;;19.39;70.04;100873.27;5031703;57;1140981;-66
2023/06/14 18:25:15;;;;;;;20.72;13.28;;;;;;;19.36;70.81;100878.13;5026156;57;1140934;-67
2023/06/14 18:30:21;;;;;;;16.40;9.40;;;;;;;19.32;71.15;100887.00;4989275;57;1143119;-68
2023/06/14 18:35:27;;;;;;;11.93;5.40;;;;;;;19.13;71.95;100884.63;5001324;57;1141065;-66
2023/06/14 18:40:32;;;;;;;10.32;5.47;;;;;;;19.13;71.95;100884.63;5001636;57;1140857;-66
2023/06/14 18:45:38;;;;;;;9.23;5.53;;;;;;;19.01;72.51;100890.81;4977739;57;1140858;-64
2023/06/14 18:50:44;;;;;;;11.40;4.92;;;;;;;18.98;73.24;100891.13;4999253;57;1138927;-64
2023/06/14 18:55:49;;;;;;;5.70;4.70;;;;;;;18.92;73.45;100894.48;5019962;57;1141043;-66
2023/06/14 19:00:55;;;;;;;12.33;5.85;;;;;;;18.91;73.81;100897.66;5005192;57;1138803;-63
2023/06/14 19:06:00;;;;;;;7.95;5.65;;;;;;;18.89;74.38;100908.20;5051038;57;1140871;-63
2023/06/14 19:11:07;;;;;;;20.75;5.67;;;;;;;18.75;74.20;100912.86;5074623;57;1138657;-62
2023/06/14 19:16:13;;;;;;;11.78;5.80;;;;;;;18.59;74.25;100910.45;5053405;57;1140817;-65
2023/06/14 19:21:18;;;;;;;7.33;4.67;;;;;;;18.49;74.43;100914.20;5032682;57;1140922;-63
2023/06/14 19:26:26;;;;;;;7.60;4.50;;;;;;;18.42;74.65;100913.19;5053557;57;1138876;-63
2023/06/14 19:31:31;;;;;;;18.43;8.97;;;;;;;18.36;74.92;100914.65;4960353;57;1138687;-63
2023/06/14 19:36:37;;;;;;;6.87;5.37;;;;;;;18.32;74.84;100911.97;4959828;57;1140787;-65
2023/06/14 19:41:43;;;;;;;14.38;7.75;;;;;;;18.31;75.51;100923.68;5009209;57;1138741;-63
2023/06/14 19:46:49;;;;;;;14.35;5.45;;;;;;;18.27;76.25;100927.17;5011166;57;1140825;-62
2023/06/14 19:51:55;;;;;;;19.12;11.50;;;;;;;18.18;76.68;100923.28;4993725;57;1140897;-64
2023/06/14 19:57:00;;;;;;;20.08;10.23;;;;;;;18.11;77.47;100917.70;4997902;57;1142940;-65
2023/06/14 20:02:06;;;;;;;9.88;7.20;;;;;;;18.15;78.26;100919.08;5049562;57;1142759;-64
2023/06/14 20:07:12;;;;;;;9.50;6.90;;;;;;;18.18;78.43;100921.94;5023092;57;1138527;-63
2023/06/14 20:12:18;;;;;;;13.05;7.17;;;;;;;18.16;78.56;100920.75;5023175;57;1138577;-62
2023/06/14 20:17:24;;;;;;;9.28;6.65;;;;;;;18.11;78.77;100924.89;5048291;57;1140748;-64
2023/06/14 20:22:37;;;;;;;13.88;8.23;;;;;;;18.06;78.90;100932.05;4980914;57;1138834;-65
2023/06/14 20:27:37;;;;;;;17.02;10.03;;;;;;;17.96;79.68;100935.83;4955423;57;1140734;-63
2023/06/14 20:32:43;;;;;;;9.15;4.72;;;;;;;17.86;79.81;100940.80;4968567;57;1143212;-65
2023/06/14 20:37:49;;;;;;;7.87;4.67;;;;;;;17.76;80.26;100950.72;5061895;57;1138861;-64
2023/06/14 20:42:56;;;;;;;9.93;5.22;;;;;;;17.66;81.25;100956.67;5052001;57;1138856;-63
2023/06/14 20:48:02;;;;;;;10.85;5.97;;;;;;;17.54;82.04;100961.39;5052279;57;1138988;-63
2023/06/14 20:53:07;;;;;;;10.63;5.67;;;;;;;17.50;83.30;100965.85;5004806;57;1140725;-63
2023/06/14 20:58:15;;;;;;;9.57;5.50;;;;;;;17.48;83.72;100967.34;5051634;57;1140817;-65
2023/06/14 21:03:21;;;;;;;11.75;6.30;;;;;;;17.38;84.00;100957.22;5051832;57;1138616;-64
2023/06/14 21:08:27;;;;;;;11.40;6.80;;;;;;;17.41;84.91;100959.59;5071360;57;1141171;-64
2023/06/14 21:13:33;;;;;;;8.33;5.23;;;;;;;17.41;85.37;100953.41;5051910;57;1140837;-63
2023/06/14 21:18:38;;;;;;;6.40;5.05;;;;;;;17.26;85.67;100957.60;5051956;57;1138936;-63
2023/06/14 21:23:44;;;;;;;8.87;5.70;;;;;;;17.21;87.03;100954.88;5030321;57;1138989;-65
2023/06/14 21:28:49;;;;;;;8.90;6.20;;;;;;;17.23;87.68;100940.87;4989231;57;1138650;-65
2023/06/14 21:33:55;;;;;;;8.43;6.00;;;;;;;17.30;88.10;100936.23;4970288;57;1138818;-65
2023/06/14 21:39:01;;;;;;;12.47;5.90;;;;;;;17.26;87.99;100928.19;4969575;58;1138733;-65
2023/06/14 21:44:06;;;;;;;12.37;5.20;;;;;;;17.23;88.69;100930.17;4989194;57;1140769;-65
2023/06/14 21:49:12;;;;;;;11.37;5.80;;;;;;;17.32;89.66;100932.42;4970010;58;1140701;-64
2023/06/14 21:54:19;;;;;;;8.77;6.47;;;;;;;17.32;89.52;100929.75;4970157;58;1140656;-64
2023/06/14 21:59:25;;;;;;;12.87;7.17;;;;;;;17.35;90.23;100932.12;4989597;58;1138829;-66
2023/06/14 22:04:30;;;;;;;24.00;14.80;;;;;;;17.36;90.17;100924.44;5048930;57;1140842;-65
2023/06/14 22:09:37;;;;;;;18.60;11.30;;;;;;;17.33;90.17;100922.56;5051824;57;1143000;-63
2023/06/14 22:14:46;;;;;;;8.40;6.95;;;;;;;17.30;90.53;100917.52;5052034;57;1142961;-65
2023/06/14 22:19:52;;;;;;;6.20;5.60;;;;;;;17.20;90.63;100917.60;5052258;57;1139006;-63
2023/06/14 22:24:57;;;;;;;6.13;5.50;;;;;;;17.14;90.65;100915.03;4969961;58;1138610;-63
2023/06/14 22:30:04;;;;;;;9.97;5.70;;;;;;;17.14;91.10;100909.68;4975105;57;1138660;-64
2023/06/14 22:35:10;;;;;;;7.85;6.17;;;;;;;17.08;91.14;100913.47;5069815;57;1138867;-65
2023/06/14 22:40:16;;;;;;;9.57;6.10;;;;;;;16.96;91.61;100912.02;5054793;57;1138791;-65
2023/06/14 22:45:24;;;;;;;14.93;5.40;;;;;;;16.72;92.28;100896.04;5049694;57;1138944;-64
2023/06/14 22:50:30;;;;;;;8.36;6.44;;;;;;;16.54;93.75;100901.30;4979411;58;1140661;-64
2023/06/14 22:55:35;;;;;;;8.00;5.50;;;;;;;16.43;94.27;100903.33;4959817;58;1138733;-65
2023/06/14 23:00:46;;;;;;;6.37;5.78;;;;;;;16.36;94.48;100903.06;4975916;57;1138795;-64